TAF LFMO
LFMO 262000Z 2621/2721 34015KT CAVOK TX07/2715Z TN00/2700Z BECMG 2621/2623 VRB05KT TEMPO 2704/2709 4500 -RA=
METAR LFMO
LFMO 270800Z AUTO 30006KT 260V320 9999 FEW070 BKN100 03/01 Q0996 NOSIG=
LFMO 270730Z AUTO VRB02KT 9999 FEW074 OVC092 03/01 Q0996 NOSIG=
LFMO 270700Z AUTO 00000KT CAVOK 02/01 Q0996 NOSIG=
LFMO 270630Z AUTO VRB02KT 9999 FEW047/// OVC098/// ///TCU 02/01 Q0996 BECMG NSC=
LFMO 270600Z AUTO 00000KT 9999 SCT047/// BKN078/// OVC096/// ///TCU 03/01 Q0996 BECMG NSC=
WC LFMO
WS LFMO
WV LFMO